Pal-3/paloil-4 — UEDW — position and weather

sailwx.info

Track history (hours):
 
Tides and Currents Weather Stations Pressure Air Temp Water Temp Dewpoint Dewpoint Depression Visibility Wind Speed Wind Dir Waves Ship Positions

Pal-3/paloil-4

Last reported at 2017-Dec-07 10:30 UTC. Time now 2018-Feb-23 20:41 UTC.
Position N 45°34' E 036°38'.
Warning: this ship's position is months out of date.

Length 135 m; draft 3.5 m.

MMSI: 273441740.

Date/timePositionNaut miles runAvg speedWind from/ knotsBaromVisibWave heightAir tempDewpointWater temp
2017-Dec-07 10:30N 45°34' E 036°38'2 3.9
2017-Dec-07 10:00N 45°32' E 036°40'2 3.4
2017-Dec-07 09:30N 45°31' E 036°41'2 3.4
2017-Dec-07 09:00N 45°29' E 036°42'2 3.6
2017-Dec-07 08:30N 45°28' E 036°42'2 3.8
2017-Dec-07 08:00N 45°26' E 036°42'2 3.3
2017-Dec-07 07:30N 45°24' E 036°42'2 2.9
2017-Dec-07 06:59N 45°23' E 036°42'0 0.1
2017-Dec-07 06:29N 45°23' E 036°42'0 0.0
2017-Dec-07 05:59N 45°23' E 036°42'0 0.0
2017-Dec-07 05:29N 45°23' E 036°42'0 0.0
2017-Dec-07 05:01N 45°23' E 036°42'0 0.0
2017-Dec-07 04:30N 45°23' E 036°42'0 0.0
2017-Dec-07 04:01N 45°23' E 036°42'0 0.0
2017-Dec-07 03:30N 45°23' E 036°42'0 0.0
2017-Dec-07 03:01N 45°23' E 036°42'0 0.0
2017-Dec-07 02:30N 45°23' E 036°42'0 0.0
2017-Dec-07 02:01N 45°23' E 036°42'0 0.0
2017-Dec-07 01:31N 45°23' E 036°42'0 0.0
2017-Dec-07 01:00N 45°23' E 036°42'0 0.0
2017-Dec-07 00:31N 45°23' E 036°42'0 0.0
2017-Dec-07 00:00N 45°23' E 036°42'0 0.0
2017-Dec-06 23:30N 45°23' E 036°42'0 0.0
2017-Dec-06 23:00N 45°23' E 036°42'0 0.0
2017-Dec-06 22:30N 45°23' E 036°42'0 0.0
2017-Dec-06 22:01N 45°23' E 036°42'0 0.1
2017-Dec-06 21:30N 45°23' E 036°42'3 5.8
2017-Dec-06 21:01N 45°21' E 036°39'  
2017-Dec-04 10:30N 45°21' E 036°40'2 4.8
2017-Dec-04 10:01N 45°23' E 036°41'1 2.9
2017-Dec-04 09:31N 45°24' E 036°43'0 0.0
2017-Dec-04 09:01N 45°24' E 036°43'0 0.1
2017-Dec-04 08:31N 45°24' E 036°43'0 0.0
2017-Dec-04 08:00N 45°24' E 036°43'2 3.5
2017-Dec-04 07:31N 45°25' E 036°43'2 4.0
2017-Dec-04 07:00N 45°27' E 036°45'3 4.0
2017-Dec-04 06:22N 45°28' E 036°48'1 1.5
2017-Dec-04 05:58N 45°28' E 036°49'0 0.1
2017-Dec-04 05:10N 45°28' E 036°49'0 0.0
2017-Dec-04 03:22N 45°28' E 036°49'0 0.0
2017-Dec-04 02:59N 45°28' E 036°49'0 0.0
2017-Dec-04 02:26N 45°28' E 036°49'0 0.0
2017-Dec-04 00:26N 45°28' E 036°49'0 0.0
2017-Dec-03 23:57N 45°28' E 036°49'0 0.0
2017-Dec-03 23:30N 45°28' E 036°49'0 0.0
2017-Dec-03 20:56N 45°28' E 036°49'0 0.0
2017-Dec-03 20:31N 45°28' E 036°49'0 0.0
2017-Dec-03 20:00N 45°28' E 036°49'0 0.0
2017-Dec-03 19:30N 45°28' E 036°49'0 0.0
2017-Dec-03 18:58N 45°28' E 036°49'0 0.0
2017-Dec-03 18:30N 45°28' E 036°49'0 0.0
2017-Dec-03 18:00N 45°28' E 036°49'0 0.0
2017-Dec-03 17:31N 45°28' E 036°49'0 0.1
2017-Dec-03 16:59N 45°28' E 036°49'0 0.0
2017-Dec-03 16:31N 45°28' E 036°49'0 0.1
2017-Dec-03 16:01N 45°28' E 036°49'0 0.1
2017-Dec-03 15:31N 45°28' E 036°49'0 0.0
2017-Dec-03 14:46N 45°28' E 036°49'0 0.0
2017-Dec-03 14:30N 45°28' E 036°49'0 0.0
2017-Dec-03 14:01N 45°28' E 036°49'0 0.0
2017-Dec-03 13:30N 45°28' E 036°49'0 0.2
2017-Dec-03 13:01N 45°28' E 036°49'0 0.1
2017-Dec-03 12:30N 45°28' E 036°49'0 0.0
2017-Dec-03 11:51N 45°28' E 036°49'0 0.0
2017-Dec-03 11:30N 45°28' E 036°49'0 0.0
2017-Dec-03 10:57N 45°28' E 036°49'0 0.0
2017-Dec-03 10:30N 45°28' E 036°49'0 0.0
2017-Dec-03 10:00N 45°28' E 036°49'0 0.0
2017-Dec-03 09:30N 45°28' E 036°49'0 0.0
2017-Dec-03 09:00N 45°28' E 036°49'0 0.0
2017-Dec-03 08:30N 45°28' E 036°49'0 0.0
2017-Dec-03 07:30N 45°28' E 036°49'0 0.0
2017-Dec-03 07:00N 45°28' E 036°49'0 0.0
2017-Dec-03 06:30N 45°28' E 036°49'0 0.0
2017-Dec-03 05:43N 45°28' E 036°49'0 0.1
2017-Dec-03 05:31N 45°28' E 036°49'0 0.0
2017-Dec-03 05:01N 45°28' E 036°49'0 0.0
2017-Dec-03 04:31N 45°28' E 036°49'0 0.0
2017-Dec-03 03:44N 45°28' E 036°49'0 0.0
2017-Dec-03 03:21N 45°28' E 036°49'0 0.0
2017-Dec-03 03:00N 45°28' E 036°49'0 0.1
2017-Dec-03 02:30N 45°28' E 036°49'0 0.1
2017-Dec-03 02:00N 45°28' E 036°49'0 0.1
2017-Dec-03 01:30N 45°28' E 036°49'0 0.0
2017-Dec-03 01:00N 45°28' E 036°49'0 0.0
2017-Dec-03 00:31N 45°28' E 036°49'0 0.1
2017-Dec-02 23:43N 45°28' E 036°49'0 0.0
2017-Dec-02 23:03N 45°28' E 036°49'0 0.0
2017-Dec-02 23:00N 45°28' E 036°49'0 0.0
2017-Dec-02 22:25N 45°28' E 036°49'0 0.0
2017-Dec-02 21:47N 45°28' E 036°49'0 0.0
2017-Dec-02 21:27N 45°28' E 036°49'0 0.0
2017-Dec-02 20:56N 45°28' E 036°49'0 0.1
2017-Dec-02 20:30N 45°28' E 036°49'0 0.1
2017-Dec-02 20:00N 45°28' E 036°49'0 0.0
2017-Dec-02 19:27N 45°28' E 036°49'0 0.0
2017-Dec-02 19:00N 45°28' E 036°49'0 0.1
2017-Dec-02 18:30N 45°28' E 036°49'0 0.1
2017-Dec-02 18:01N 45°28' E 036°49'0 0.1
2017-Dec-02 17:30N 45°28' E 036°49'0 0.2
2017-Dec-02 17:00N 45°28' E 036°49'0 0.1
2017-Dec-02 16:31N 45°28' E 036°49'0 0.0
2017-Dec-02 16:01N 45°28' E 036°49'0 0.0
2017-Dec-02 15:30N 45°28' E 036°49'0 0.0
2017-Dec-02 15:00N 45°28' E 036°49'0 0.0
2017-Dec-02 14:30N 45°28' E 036°49'0 0.1
2017-Dec-02 14:00N 45°28' E 036°49'0 0.2
2017-Dec-02 13:31N 45°28' E 036°49'0 0.1
2017-Dec-02 13:00N 45°28' E 036°49'0 0.1
2017-Dec-02 12:30N 45°28' E 036°49'0 0.0
2017-Dec-02 12:01N 45°28' E 036°49'0 0.0
2017-Dec-02 11:30N 45°28' E 036°49'0 0.0
2017-Dec-02 11:00N 45°28' E 036°49'0 0.0
2017-Dec-02 10:30N 45°28' E 036°49'0 0.0
2017-Dec-02 10:00N 45°28' E 036°49'0 0.0
2017-Dec-02 09:31N 45°28' E 036°49'0 0.2
2017-Dec-02 08:58N 45°28' E 036°49'  
Track history (hours):
 
Tides and Currents Weather Stations Pressure Air Temp Water Temp Dewpoint Dewpoint Depression Visibility Wind Speed Wind Dir Waves Ship Positions

Pal-3/paloil-4

Last reported at 2017-Dec-07 10:30 UTC. Time now 2018-Feb-23 20:41 UTC.
Position N 45°34' E 036°38'.
Warning: this ship's position is months out of date.

Length 135 m; draft 3.5 m.

MMSI: 273441740.

Date/timePositionNaut miles runAvg speedWind from/ knotsBaromVisibWave heightAir tempDewpointWater temp
2017-Dec-07 10:30N 45°34' E 036°38'2 3.9
2017-Dec-07 10:00N 45°32' E 036°40'2 3.4
2017-Dec-07 09:30N 45°31' E 036°41'2 3.4
2017-Dec-07 09:00N 45°29' E 036°42'2 3.6
2017-Dec-07 08:30N 45°28' E 036°42'2 3.8
2017-Dec-07 08:00N 45°26' E 036°42'2 3.3
2017-Dec-07 07:30N 45°24' E 036°42'2 2.9
2017-Dec-07 06:59N 45°23' E 036°42'0 0.1
2017-Dec-07 06:29N 45°23' E 036°42'0 0.0
2017-Dec-07 05:59N 45°23' E 036°42'0 0.0
2017-Dec-07 05:29N 45°23' E 036°42'0 0.0
2017-Dec-07 05:01N 45°23' E 036°42'0 0.0
2017-Dec-07 04:30N 45°23' E 036°42'0 0.0
2017-Dec-07 04:01N 45°23' E 036°42'0 0.0
2017-Dec-07 03:30N 45°23' E 036°42'0 0.0
2017-Dec-07 03:01N 45°23' E 036°42'0 0.0
2017-Dec-07 02:30N 45°23' E 036°42'0 0.0
2017-Dec-07 02:01N 45°23' E 036°42'0 0.0
2017-Dec-07 01:31N 45°23' E 036°42'0 0.0
2017-Dec-07 01:00N 45°23' E 036°42'0 0.0
2017-Dec-07 00:31N 45°23' E 036°42'0 0.0
2017-Dec-07 00:00N 45°23' E 036°42'0 0.0
2017-Dec-06 23:30N 45°23' E 036°42'0 0.0
2017-Dec-06 23:00N 45°23' E 036°42'0 0.0
2017-Dec-06 22:30N 45°23' E 036°42'0 0.0
2017-Dec-06 22:01N 45°23' E 036°42'0 0.1
2017-Dec-06 21:30N 45°23' E 036°42'3 5.8
2017-Dec-06 21:01N 45°21' E 036°39'  
2017-Dec-04 10:30N 45°21' E 036°40'2 4.8
2017-Dec-04 10:01N 45°23' E 036°41'1 2.9
2017-Dec-04 09:31N 45°24' E 036°43'0 0.0
2017-Dec-04 09:01N 45°24' E 036°43'0 0.1
2017-Dec-04 08:31N 45°24' E 036°43'0 0.0
2017-Dec-04 08:00N 45°24' E 036°43'2 3.5
2017-Dec-04 07:31N 45°25' E 036°43'2 4.0
2017-Dec-04 07:00N 45°27' E 036°45'3 4.0
2017-Dec-04 06:22N 45°28' E 036°48'1 1.5
2017-Dec-04 05:58N 45°28' E 036°49'0 0.1
2017-Dec-04 05:10N 45°28' E 036°49'0 0.0
2017-Dec-04 03:22N 45°28' E 036°49'0 0.0
2017-Dec-04 02:59N 45°28' E 036°49'0 0.0
2017-Dec-04 02:26N 45°28' E 036°49'0 0.0
2017-Dec-04 00:26N 45°28' E 036°49'0 0.0
2017-Dec-03 23:57N 45°28' E 036°49'0 0.0
2017-Dec-03 23:30N 45°28' E 036°49'0 0.0
2017-Dec-03 20:56N 45°28' E 036°49'0 0.0
2017-Dec-03 20:31N 45°28' E 036°49'0 0.0
2017-Dec-03 20:00N 45°28' E 036°49'0 0.0
2017-Dec-03 19:30N 45°28' E 036°49'0 0.0
2017-Dec-03 18:58N 45°28' E 036°49'0 0.0
2017-Dec-03 18:30N 45°28' E 036°49'0 0.0
2017-Dec-03 18:00N 45°28' E 036°49'0 0.0
2017-Dec-03 17:31N 45°28' E 036°49'0 0.1
2017-Dec-03 16:59N 45°28' E 036°49'0 0.0
2017-Dec-03 16:31N 45°28' E 036°49'0 0.1
2017-Dec-03 16:01N 45°28' E 036°49'0 0.1
2017-Dec-03 15:31N 45°28' E 036°49'0 0.0
2017-Dec-03 14:46N 45°28' E 036°49'0 0.0
2017-Dec-03 14:30N 45°28' E 036°49'0 0.0
2017-Dec-03 14:01N 45°28' E 036°49'0 0.0
2017-Dec-03 13:30N 45°28' E 036°49'0 0.2
2017-Dec-03 13:01N 45°28' E 036°49'0 0.1
2017-Dec-03 12:30N 45°28' E 036°49'0 0.0
2017-Dec-03 11:51N 45°28' E 036°49'0 0.0
2017-Dec-03 11:30N 45°28' E 036°49'0 0.0
2017-Dec-03 10:57N 45°28' E 036°49'0 0.0
2017-Dec-03 10:30N 45°28' E 036°49'0 0.0
2017-Dec-03 10:00N 45°28' E 036°49'0 0.0
2017-Dec-03 09:30N 45°28' E 036°49'0 0.0
2017-Dec-03 09:00N 45°28' E 036°49'0 0.0
2017-Dec-03 08:30N 45°28' E 036°49'0 0.0
2017-Dec-03 07:30N 45°28' E 036°49'0 0.0
2017-Dec-03 07:00N 45°28' E 036°49'0 0.0
2017-Dec-03 06:30N 45°28' E 036°49'0 0.0
2017-Dec-03 05:43N 45°28' E 036°49'0 0.1
2017-Dec-03 05:31N 45°28' E 036°49'0 0.0
2017-Dec-03 05:01N 45°28' E 036°49'0 0.0
2017-Dec-03 04:31N 45°28' E 036°49'0 0.0
2017-Dec-03 03:44N 45°28' E 036°49'0 0.0
2017-Dec-03 03:21N 45°28' E 036°49'0 0.0
2017-Dec-03 03:00N 45°28' E 036°49'0 0.1
2017-Dec-03 02:30N 45°28' E 036°49'0 0.1
2017-Dec-03 02:00N 45°28' E 036°49'0 0.1
2017-Dec-03 01:30N 45°28' E 036°49'0 0.0
2017-Dec-03 01:00N 45°28' E 036°49'0 0.0
2017-Dec-03 00:31N 45°28' E 036°49'0 0.1
2017-Dec-02 23:43N 45°28' E 036°49'0 0.0
2017-Dec-02 23:03N 45°28' E 036°49'0 0.0
2017-Dec-02 23:00N 45°28' E 036°49'0 0.0
2017-Dec-02 22:25N 45°28' E 036°49'0 0.0
2017-Dec-02 21:47N 45°28' E 036°49'0 0.0
2017-Dec-02 21:27N 45°28' E 036°49'0 0.0
2017-Dec-02 20:56N 45°28' E 036°49'0 0.1
2017-Dec-02 20:30N 45°28' E 036°49'0 0.1
2017-Dec-02 20:00N 45°28' E 036°49'0 0.0
2017-Dec-02 19:27N 45°28' E 036°49'0 0.0
2017-Dec-02 19:00N 45°28' E 036°49'0 0.1
2017-Dec-02 18:30N 45°28' E 036°49'0 0.1
2017-Dec-02 18:01N 45°28' E 036°49'0 0.1
2017-Dec-02 17:30N 45°28' E 036°49'0 0.2
2017-Dec-02 17:00N 45°28' E 036°49'0 0.1
2017-Dec-02 16:31N 45°28' E 036°49'0 0.0
2017-Dec-02 16:01N 45°28' E 036°49'0 0.0
2017-Dec-02 15:30N 45°28' E 036°49'0 0.0
2017-Dec-02 15:00N 45°28' E 036°49'0 0.0
2017-Dec-02 14:30N 45°28' E 036°49'0 0.1
2017-Dec-02 14:00N 45°28' E 036°49'0 0.2
2017-Dec-02 13:31N 45°28' E 036°49'0 0.1
2017-Dec-02 13:00N 45°28' E 036°49'0 0.1
2017-Dec-02 12:30N 45°28' E 036°49'0 0.0
2017-Dec-02 12:01N 45°28' E 036°49'0 0.0
2017-Dec-02 11:30N 45°28' E 036°49'0 0.0
2017-Dec-02 11:00N 45°28' E 036°49'0 0.0
2017-Dec-02 10:30N 45°28' E 036°49'0 0.0
2017-Dec-02 10:00N 45°28' E 036°49'0 0.0
2017-Dec-02 09:31N 45°28' E 036°49'0 0.2
2017-Dec-02 08:58N 45°28' E 036°49'  

Dump ship's entire track history